sensor_id;sensor_type;location;lat;lon;timestamp;temperature;humidity
1994;DHT22;998;49.906;10.908;2024-01-15T00:00:38;-2.30;99.90
1994;DHT22;998;49.906;10.908;2024-01-15T00:03:06;-1.90;99.90
1994;DHT22;998;49.906;10.908;2024-01-15T00:05:35;-2.00;99.90
1994;DHT22;998;49.906;10.908;2024-01-15T00:08:03;-2.00;99.90
1994;DHT22;998;49.906;10.908;2024-01-15T00:10:31;-2.00;99.90
1994;DHT22;998;49.906;10.908;2024-01-15T00:12:58;-2.10;99.90
1994;DHT22;998;49.906;10.908;2024-01-15T00:15:26;-1.30;99.90
1994;DHT22;998;49.906;10.908;2024-01-15T00:17:54;-1.20;99.90
1994;DHT22;998;49.906;10.908;2024-01-15T00:20:22;-1.90;99.90
1994;DHT22;998;49.906;10.908;2024-01-15T00:22:51;-2.10;99.90
1994;DHT22;998;49.906;10.908;2024-01-15T00:25:18;-1.80;99.90
1994;DHT22;998;49.906;10.908;2024-01-15T00:27:46;-2.00;99.90
1994;DHT22;998;49.906;10.908;2024-01-15T00:30:14;-2.10;99.90
1994;DHT22;998;49.906;10.908;2024-01-15T00:32:41;-2.00;99.90
1994;DHT22;998;49.906;10.908;2024-01-15T00:35:09;-2.00;99.90
1994;DHT22;998;49.906;10.908;2024-01-15T00:37:36;-2.00;99.90
1994;DHT22;998;49.906;10.908;2024-01-15T00:40:07;-2.00;99.90
1994;DHT22;998;49.906;10.908;2024-01-15T00:42:35;-2.00;99.90
1994;DHT22;998;49.906;10.908;2024-01-15T00:45:03;-1.90;99.90
1994;DHT22;998;49.906;10.908;2024-01-15T00:47:31;-1.90;99.90
1994;DHT22;998;49.906;10.908;2024-01-15T00:49:58;-1.90;99.90
1994;DHT22;998;49.906;10.908;2024-01-15T00:52:26;-2.00;99.90
1994;DHT22;998;49.906;10.908;2024-01-15T00:54:53;-1.90;99.90
1994;DHT22;998;49.906;10.908;2024-01-15T00:57:22;-2.00;99.90
1994;DHT22;998;49.906;10.908;2024-01-15T00:59:50;-1.90;99.90
1994;DHT22;998;49.906;10.908;2024-01-15T01:02:17;-2.00;99.90
1994;DHT22;998;49.906;10.908;2024-01-15T01:04:45;-2.00;99.90
1994;DHT22;998;49.906;10.908;2024-01-15T01:07:12;-2.00;99.90
1994;DHT22;998;49.906;10.908;2024-01-15T01:09:39;-2.00;99.90
1994;DHT22;998;49.906;10.908;2024-01-15T01:12:07;-2.00;99.90
1994;DHT22;998;49.906;10.908;2024-01-15T01:14:36;-2.00;99.90
1994;DHT22;998;49.906;10.908;2024-01-15T01:17:04;-2.00;99.90
1994;DHT22;998;49.906;10.908;2024-01-15T01:19:31;-2.00;99.90
1994;DHT22;998;49.906;10.908;2024-01-15T01:21:59;-2.00;99.90
1994;DHT22;998;49.906;10.908;2024-01-15T01:24:26;-1.90;99.90
1994;DHT22;998;49.906;10.908;2024-01-15T01:26:54;-1.90;99.90
1994;DHT22;998;49.906;10.908;2024-01-15T01:29:21;-1.90;99.90
1994;DHT22;998;49.906;10.908;2024-01-15T01:31:51;-1.90;99.90
1994;DHT22;998;49.906;10.908;2024-01-15T01:34:18;-1.90;99.90
1994;DHT22;998;49.906;10.908;2024-01-15T01:36:46;-1.90;99.90
1994;DHT22;998;49.906;10.908;2024-01-15T01:39:13;-1.90;99.90
1994;DHT22;998;49.906;10.908;2024-01-15T01:41:41;-1.90;99.90
1994;DHT22;998;49.906;10.908;2024-01-15T01:44:08;-1.80;99.90
1994;DHT22;998;49.906;10.908;2024-01-15T01:46:36;-1.80;99.90
1994;DHT22;998;49.906;10.908;2024-01-15T01:49:09;-1.80;99.90
1994;DHT22;998;49.906;10.908;2024-01-15T01:51:38;-1.90;99.90
1994;DHT22;998;49.906;10.908;2024-01-15T01:54:06;-1.90;99.90
1994;DHT22;998;49.906;10.908;2024-01-15T01:56:35;-1.90;99.90
1994;DHT22;998;49.906;10.908;2024-01-15T01:59:04;-1.80;99.90
1994;DHT22;998;49.906;10.908;2024-01-15T02:01:32;-1.80;99.90
1994;DHT22;998;49.906;10.908;2024-01-15T02:04:00;-1.80;99.90
1994;DHT22;998;49.906;10.908;2024-01-15T02:06:30;-1.80;99.90
1994;DHT22;998;49.906;10.908;2024-01-15T02:08:58;-1.80;99.90
1994;DHT22;998;49.906;10.908;2024-01-15T02:11:25;-1.80;99.90
1994;DHT22;998;49.906;10.908;2024-01-15T02:13:53;-1.80;99.90
1994;DHT22;998;49.906;10.908;2024-01-15T02:16:20;-1.80;99.90
1994;DHT22;998;49.906;10.908;2024-01-15T02:18:48;-1.80;99.90
1994;DHT22;998;49.906;10.908;2024-01-15T02:21:15;-2.00;99.90
1994;DHT22;998;49.906;10.908;2024-01-15T02:23:44;-1.90;99.90
1994;DHT22;998;49.906;10.908;2024-01-15T02:26:11;-1.80;99.90
1994;DHT22;998;49.906;10.908;2024-01-15T02:28:39;-1.80;99.90
1994;DHT22;998;49.906;10.908;2024-01-15T02:31:07;-1.80;99.90
1994;DHT22;998;49.906;10.908;2024-01-15T02:33:35;-1.80;99.90
1994;DHT22;998;49.906;10.908;2024-01-15T02:36:03;-1.90;99.90
1994;DHT22;998;49.906;10.908;2024-01-15T02:38:31;-1.90;99.90
1994;DHT22;998;49.906;10.908;2024-01-15T02:41:00;-2.00;99.90
1994;DHT22;998;49.906;10.908;2024-01-15T02:43:27;-1.70;99.90
1994;DHT22;998;49.906;10.908;2024-01-15T02:45:55;-2.20;99.90
1994;DHT22;998;49.906;10.908;2024-01-15T02:48:22;-1.60;99.90
1994;DHT22;998;49.906;10.908;2024-01-15T02:53:17;-1.60;99.90
1994;DHT22;998;49.906;10.908;2024-01-15T02:55:45;-1.80;99.90
1994;DHT22;998;49.906;10.908;2024-01-15T02:58:14;-1.50;99.90
1994;DHT22;998;49.906;10.908;2024-01-15T03:00:42;-1.90;99.90
1994;DHT22;998;49.906;10.908;2024-01-15T03:03:09;-1.80;99.90
1994;DHT22;998;49.906;10.908;2024-01-15T03:05:37;-1.80;99.90
1994;DHT22;998;49.906;10.908;2024-01-15T03:08:05;-1.80;99.90
1994;DHT22;998;49.906;10.908;2024-01-15T03:13:00;-1.70;99.90
1994;DHT22;998;49.906;10.908;2024-01-15T03:15:29;-1.80;99.90
1994;DHT22;998;49.906;10.908;2024-01-15T03:17:56;-1.40;99.90
1994;DHT22;998;49.906;10.908;2024-01-15T03:20:23;-1.80;99.90
1994;DHT22;998;49.906;10.908;2024-01-15T03:22:51;-1.70;99.90
1994;DHT22;998;49.906;10.908;2024-01-15T03:25:19;-1.80;99.90
1994;DHT22;998;49.906;10.908;2024-01-15T03:30:14;-1.80;99.90
1994;DHT22;998;49.906;10.908;2024-01-15T03:32:43;-2.00;99.90
1994;DHT22;998;49.906;10.908;2024-01-15T03:35:10;-1.60;99.90
1994;DHT22;998;49.906;10.908;2024-01-15T03:37:38;-1.70;99.90
1994;DHT22;998;49.906;10.908;2024-01-15T03:40:07;-1.80;99.90
1994;DHT22;998;49.906;10.908;2024-01-15T03:42:35;-1.60;99.90
1994;DHT22;998;49.906;10.908;2024-01-15T03:45:03;-1.50;99.90
1994;DHT22;998;49.906;10.908;2024-01-15T03:47:31;-1.60;99.90
1994;DHT22;998;49.906;10.908;2024-01-15T03:50:00;-1.60;99.90
1994;DHT22;998;49.906;10.908;2024-01-15T03:52:28;-1.50;99.90
1994;DHT22;998;49.906;10.908;2024-01-15T03:54:55;-0.70;99.90
1994;DHT22;998;49.906;10.908;2024-01-15T03:59:50;-1.50;99.90
1994;DHT22;998;49.906;10.908;2024-01-15T04:02:18;-1.80;99.90
1994;DHT22;998;49.906;10.908;2024-01-15T04:04:45;-1.40;99.90
1994;DHT22;998;49.906;10.908;2024-01-15T04:07:14;-1.50;99.90
1994;DHT22;998;49.906;10.908;2024-01-15T04:09:41;-1.60;99.90
1994;DHT22;998;49.906;10.908;2024-01-15T04:12:09;-1.30;99.90
1994;DHT22;998;49.906;10.908;2024-01-15T04:14:36;-1.90;99.90
1994;DHT22;998;49.906;10.908;2024-01-15T04:17:04;-2.50;99.90
1994;DHT22;998;49.906;10.908;2024-01-15T04:19:31;-1.40;99.90
1994;DHT22;998;49.906;10.908;2024-01-15T04:21:59;-2.00;99.90
1994;DHT22;998;49.906;10.908;2024-01-15T04:24:28;-1.70;99.90
1994;DHT22;998;49.906;10.908;2024-01-15T04:26:55;-1.10;99.90
1994;DHT22;998;49.906;10.908;2024-01-15T04:29:23;-1.30;99.90
1994;DHT22;998;49.906;10.908;2024-01-15T04:31:50;-1.50;99.90
1994;DHT22;998;49.906;10.908;2024-01-15T04:34:17;-1.30;99.90
1994;DHT22;998;49.906;10.908;2024-01-15T04:36:44;-1.50;99.90
1994;DHT22;998;49.906;10.908;2024-01-15T04:39:12;-1.40;99.90
1994;DHT22;998;49.906;10.908;2024-01-15T04:41:41;-2.30;99.90
1994;DHT22;998;49.906;10.908;2024-01-15T04:44:08;-1.50;99.90
1994;DHT22;998;49.906;10.908;2024-01-15T04:46:36;-1.80;99.90
1994;DHT22;998;49.906;10.908;2024-01-15T04:49:03;-1.30;99.90
1994;DHT22;998;49.906;10.908;2024-01-15T04:51:30;-1.60;99.90
1994;DHT22;998;49.906;10.908;2024-01-15T04:53:58;-1.30;99.90
1994;DHT22;998;49.906;10.908;2024-01-15T04:56:25;-1.80;99.90
1994;DHT22;998;49.906;10.908;2024-01-15T04:58:54;-1.50;99.90
1994;DHT22;998;49.906;10.908;2024-01-15T05:01:22;-1.50;99.90
1994;DHT22;998;49.906;10.908;2024-01-15T05:03:49;-1.80;99.90
1994;DHT22;998;49.906;10.908;2024-01-15T05:06:17;-1.60;99.90
1994;DHT22;998;49.906;10.908;2024-01-15T05:08:44;-1.60;99.90
1994;DHT22;998;49.906;10.908;2024-01-15T05:11:12;-1.30;99.90
1994;DHT22;998;49.906;10.908;2024-01-15T05:13:39;-1.20;99.90
1994;DHT22;998;49.906;10.908;2024-01-15T05:16:08;-3.30;99.90
1994;DHT22;998;49.906;10.908;2024-01-15T05:18:36;-0.90;99.90
1994;DHT22;998;49.906;10.908;2024-01-15T05:21:04;-1.40;99.90
1994;DHT22;998;49.906;10.908;2024-01-15T05:23:32;-1.50;99.90
1994;DHT22;998;49.906;10.908;2024-01-15T05:25:59;-1.20;99.90
1994;DHT22;998;49.906;10.908;2024-01-15T05:28:26;-1.30;99.90
1994;DHT22;998;49.906;10.908;2024-01-15T05:30:54;-1.70;99.90
1994;DHT22;998;49.906;10.908;2024-01-15T05:33:23;-1.50;99.90
1994;DHT22;998;49.906;10.908;2024-01-15T05:40:47;-1.70;99.90
1994;DHT22;998;49.906;10.908;2024-01-15T05:43:14;-1.50;99.90
1994;DHT22;998;49.906;10.908;2024-01-15T05:45:43;-1.40;99.90
1994;DHT22;998;49.906;10.908;2024-01-15T05:48:11;-1.20;99.90
1994;DHT22;998;49.906;10.908;2024-01-15T05:50:41;-1.60;99.90
1994;DHT22;998;49.906;10.908;2024-01-15T05:53:08;-1.30;99.90
1994;DHT22;998;49.906;10.908;2024-01-15T05:55:36;-1.60;99.90
1994;DHT22;998;49.906;10.908;2024-01-15T05:58:04;-1.20;99.90
1994;DHT22;998;49.906;10.908;2024-01-15T06:00:32;-1.40;99.90
1994;DHT22;998;49.906;10.908;2024-01-15T06:03:01;-1.30;99.90
1994;DHT22;998;49.906;10.908;2024-01-15T06:07:58;-1.40;99.90
1994;DHT22;998;49.906;10.908;2024-01-15T06:10:25;-1.40;99.90
1994;DHT22;998;49.906;10.908;2024-01-15T06:12:52;-1.30;99.90
1994;DHT22;998;49.906;10.908;2024-01-15T06:15:20;-1.20;99.90
1994;DHT22;998;49.906;10.908;2024-01-15T06:17:47;-1.00;99.90
1994;DHT22;998;49.906;10.908;2024-01-15T06:20:15;-1.10;99.90
1994;DHT22;998;49.906;10.908;2024-01-15T06:22:42;-1.00;99.90
1994;DHT22;998;49.906;10.908;2024-01-15T06:25:11;-1.30;99.90
1994;DHT22;998;49.906;10.908;2024-01-15T06:27:39;-1.00;99.90
1994;DHT22;998;49.906;10.908;2024-01-15T06:30:07;-1.10;99.90
1994;DHT22;998;49.906;10.908;2024-01-15T06:32:35;-1.00;99.90
1994;DHT22;998;49.906;10.908;2024-01-15T06:35:03;-1.20;99.90
1994;DHT22;998;49.906;10.908;2024-01-15T06:37:31;-1.10;99.90
1994;DHT22;998;49.906;10.908;2024-01-15T06:39:58;-1.10;99.90
1994;DHT22;998;49.906;10.908;2024-01-15T06:42:27;-1.00;99.90
1994;DHT22;998;49.906;10.908;2024-01-15T06:44:54;-1.10;99.90
1994;DHT22;998;49.906;10.908;2024-01-15T06:47:22;-1.20;99.90
1994;DHT22;998;49.906;10.908;2024-01-15T06:49:49;-1.20;99.90
1994;DHT22;998;49.906;10.908;2024-01-15T06:52:18;-1.30;99.90
1994;DHT22;998;49.906;10.908;2024-01-15T06:54:45;-1.20;99.90
1994;DHT22;998;49.906;10.908;2024-01-15T06:59:42;-1.10;99.90
1994;DHT22;998;49.906;10.908;2024-01-15T07:02:10;-0.70;99.90
1994;DHT22;998;49.906;10.908;2024-01-15T07:04:38;-1.10;99.90
1994;DHT22;998;49.906;10.908;2024-01-15T07:07:05;-1.40;99.90
1994;DHT22;998;49.906;10.908;2024-01-15T07:09:33;-1.10;99.90
1994;DHT22;998;49.906;10.908;2024-01-15T07:12:00;-1.30;99.90
1994;DHT22;998;49.906;10.908;2024-01-15T07:14:28;-1.10;99.90
1994;DHT22;998;49.906;10.908;2024-01-15T07:16:57;-1.20;99.90
1994;DHT22;998;49.906;10.908;2024-01-15T07:19:24;-1.00;99.90
1994;DHT22;998;49.906;10.908;2024-01-15T07:21:52;-1.40;99.90
1994;DHT22;998;49.906;10.908;2024-01-15T07:24:19;-1.30;99.90
1994;DHT22;998;49.906;10.908;2024-01-15T07:26:48;-1.50;99.90
1994;DHT22;998;49.906;10.908;2024-01-15T07:29:16;-1.20;99.90
1994;DHT22;998;49.906;10.908;2024-01-15T07:31:48;-1.10;99.90
1994;DHT22;998;49.906;10.908;2024-01-15T07:34:17;-1.10;99.90
1994;DHT22;998;49.906;10.908;2024-01-15T07:36:45;-0.60;99.90
1994;DHT22;998;49.906;10.908;2024-01-15T07:39:12;-1.10;99.90
1994;DHT22;998;49.906;10.908;2024-01-15T07:41:40;-1.10;99.90
1994;DHT22;998;49.906;10.908;2024-01-15T07:44:08;-1.30;99.90
1994;DHT22;998;49.906;10.908;2024-01-15T07:46:35;-1.10;99.90
1994;DHT22;998;49.906;10.908;2024-01-15T07:49:02;-1.90;99.90
1994;DHT22;998;49.906;10.908;2024-01-15T07:51:32;-1.30;99.90
1994;DHT22;998;49.906;10.908;2024-01-15T07:54:00;-0.80;99.90
1994;DHT22;998;49.906;10.908;2024-01-15T07:56:27;-1.20;99.90
1994;DHT22;998;49.906;10.908;2024-01-15T07:58:56;-1.20;99.90
1994;DHT22;998;49.906;10.908;2024-01-15T08:01:24;-1.10;99.90
1994;DHT22;998;49.906;10.908;2024-01-15T08:03:51;-1.00;99.90
1994;DHT22;998;49.906;10.908;2024-01-15T08:06:21;-1.10;99.90
1994;DHT22;998;49.906;10.908;2024-01-15T08:08:50;-1.20;99.90
1994;DHT22;998;49.906;10.908;2024-01-15T08:11:17;-1.20;99.90
1994;DHT22;998;49.906;10.908;2024-01-15T08:13:45;-0.70;99.90
1994;DHT22;998;49.906;10.908;2024-01-15T08:18:41;-1.10;99.90
1994;DHT22;998;49.906;10.908;2024-01-15T08:21:10;-1.10;99.90
1994;DHT22;998;49.906;10.908;2024-01-15T08:23:37;-1.10;99.90
1994;DHT22;998;49.906;10.908;2024-01-15T08:26:06;-1.00;99.90
1994;DHT22;998;49.906;10.908;2024-01-15T08:28:34;-1.20;99.90
1994;DHT22;998;49.906;10.908;2024-01-15T08:31:02;-0.90;99.90
1994;DHT22;998;49.906;10.908;2024-01-15T08:33:30;-1.10;99.90
1994;DHT22;998;49.906;10.908;2024-01-15T08:35:57;-1.60;99.90
1994;DHT22;998;49.906;10.908;2024-01-15T08:38:24;-1.60;99.90
1994;DHT22;998;49.906;10.908;2024-01-15T08:43:24;-1.60;99.90
1994;DHT22;998;49.906;10.908;2024-01-15T08:45:51;-1.00;99.90
1994;DHT22;998;49.906;10.908;2024-01-15T08:48:18;-0.80;99.90
1994;DHT22;998;49.906;10.908;2024-01-15T08:50:46;-0.80;99.90
1994;DHT22;998;49.906;10.908;2024-01-15T08:53:13;-1.00;99.90
1994;DHT22;998;49.906;10.908;2024-01-15T08:55:41;-1.10;99.90
1994;DHT22;998;49.906;10.908;2024-01-15T08:58:10;-1.00;99.90
1994;DHT22;998;49.906;10.908;2024-01-15T09:00:39;-0.80;99.90
1994;DHT22;998;49.906;10.908;2024-01-15T09:03:07;-0.70;99.90
1994;DHT22;998;49.906;10.908;2024-01-15T09:05:35;-0.90;99.90
1994;DHT22;998;49.906;10.908;2024-01-15T09:08:03;-0.90;99.90
1994;DHT22;998;49.906;10.908;2024-01-15T09:10:31;-0.80;99.90
1994;DHT22;998;49.906;10.908;2024-01-15T09:12:58;-0.10;99.90
1994;DHT22;998;49.906;10.908;2024-01-15T09:15:26;-0.30;99.90
1994;DHT22;998;49.906;10.908;2024-01-15T09:17:55;-0.60;99.90
1994;DHT22;998;49.906;10.908;2024-01-15T09:20:23;-0.80;99.90
1994;DHT22;998;49.906;10.908;2024-01-15T09:22:51;-0.80;99.90
1994;DHT22;998;49.906;10.908;2024-01-15T09:25:19;-1.00;99.90
1994;DHT22;998;49.906;10.908;2024-01-15T09:27:47;-0.80;99.90
1994;DHT22;998;49.906;10.908;2024-01-15T09:30:15;-0.60;99.90
1994;DHT22;998;49.906;10.908;2024-01-15T09:32:42;-0.70;99.90
1994;DHT22;998;49.906;10.908;2024-01-15T09:35:11;-0.70;99.90
1994;DHT22;998;49.906;10.908;2024-01-15T09:37:39;-0.70;99.90
1994;DHT22;998;49.906;10.908;2024-01-15T09:40:13;-0.70;99.90
1994;DHT22;998;49.906;10.908;2024-01-15T09:42:41;-0.70;99.90
1994;DHT22;998;49.906;10.908;2024-01-15T09:45:09;-0.40;99.90
1994;DHT22;998;49.906;10.908;2024-01-15T09:47:37;-0.70;99.90
1994;DHT22;998;49.906;10.908;2024-01-15T09:50:06;-0.60;99.90
1994;DHT22;998;49.906;10.908;2024-01-15T09:52:35;-0.60;99.90
1994;DHT22;998;49.906;10.908;2024-01-15T09:55:04;-0.60;99.90
1994;DHT22;998;49.906;10.908;2024-01-15T09:57:32;-0.60;99.90
1994;DHT22;998;49.906;10.908;2024-01-15T10:00:02;-0.60;99.90
1994;DHT22;998;49.906;10.908;2024-01-15T10:02:31;-0.50;99.90
1994;DHT22;998;49.906;10.908;2024-01-15T10:04:58;-1.90;99.90
1994;DHT22;998;49.906;10.908;2024-01-15T10:07:26;2.00;99.90
1994;DHT22;998;49.906;10.908;2024-01-15T10:09:56;-0.30;99.90
1994;DHT22;998;49.906;10.908;2024-01-15T10:12:24;-0.70;99.90
1994;DHT22;998;49.906;10.908;2024-01-15T10:14:53;-0.60;99.90
1994;DHT22;998;49.906;10.908;2024-01-15T10:17:21;-0.50;99.90
1994;DHT22;998;49.906;10.908;2024-01-15T10:19:48;-0.60;99.90
1994;DHT22;998;49.906;10.908;2024-01-15T10:22:16;-0.60;99.90
1994;DHT22;998;49.906;10.908;2024-01-15T10:24:44;-0.70;99.90
1994;DHT22;998;49.906;10.908;2024-01-15T10:27:12;-0.20;99.90
1994;DHT22;998;49.906;10.908;2024-01-15T10:29:41;-0.40;99.90
1994;DHT22;998;49.906;10.908;2024-01-15T10:32:10;-0.40;99.90
1994;DHT22;998;49.906;10.908;2024-01-15T10:34:38;-0.40;99.90
1994;DHT22;998;49.906;10.908;2024-01-15T10:37:08;-0.30;99.90
1994;DHT22;998;49.906;10.908;2024-01-15T10:39:35;-0.80;99.90
1994;DHT22;998;49.906;10.908;2024-01-15T10:42:03;-0.40;99.90
1994;DHT22;998;49.906;10.908;2024-01-15T10:44:33;-0.50;99.90
1994;DHT22;998;49.906;10.908;2024-01-15T10:47:01;-0.20;99.90
1994;DHT22;998;49.906;10.908;2024-01-15T10:49:29;-0.10;99.90
1994;DHT22;998;49.906;10.908;2024-01-15T10:51:57;-1.60;99.90
1994;DHT22;998;49.906;10.908;2024-01-15T10:54:25;-0.30;99.90
1994;DHT22;998;49.906;10.908;2024-01-15T10:56:54;-0.20;99.90
1994;DHT22;998;49.906;10.908;2024-01-15T10:59:23;-0.30;99.90
1994;DHT22;998;49.906;10.908;2024-01-15T11:02:01;-0.30;99.90
1994;DHT22;998;49.906;10.908;2024-01-15T11:04:32;-0.10;99.90
1994;DHT22;998;49.906;10.908;2024-01-15T11:07:01;-0.20;99.90
1994;DHT22;998;49.906;10.908;2024-01-15T11:12:07;-0.10;99.90
1994;DHT22;998;49.906;10.908;2024-01-15T11:14:35;-0.30;99.90
1994;DHT22;998;49.906;10.908;2024-01-15T11:17:04;-0.20;99.90
1994;DHT22;998;49.906;10.908;2024-01-15T11:19:38;-0.20;99.90
1994;DHT22;998;49.906;10.908;2024-01-15T11:22:09;-0.30;99.90
1994;DHT22;998;49.906;10.908;2024-01-15T11:24:38;-0.20;99.90
1994;DHT22;998;49.906;10.908;2024-01-15T11:27:07;0.00;99.90
1994;DHT22;998;49.906;10.908;2024-01-15T11:29:37;-0.30;99.90
1994;DHT22;998;49.906;10.908;2024-01-15T11:32:07;0.40;99.90
1994;DHT22;998;49.906;10.908;2024-01-15T11:34:51;-0.20;99.90
1994;DHT22;998;49.906;10.908;2024-01-15T11:37:18;-0.10;99.90
1994;DHT22;998;49.906;10.908;2024-01-15T11:39:46;0.00;99.90
1994;DHT22;998;49.906;10.908;2024-01-15T11:42:14;0.00;99.90
1994;DHT22;998;49.906;10.908;2024-01-15T11:44:42;0.10;99.90
1994;DHT22;998;49.906;10.908;2024-01-15T11:47:12;0.10;99.90
1994;DHT22;998;49.906;10.908;2024-01-15T11:50:00;0.10;99.90
1994;DHT22;998;49.906;10.908;2024-01-15T11:52:33;0.10;99.90
1994;DHT22;998;49.906;10.908;2024-01-15T11:55:22;0.00;99.90
1994;DHT22;998;49.906;10.908;2024-01-15T11:57:54;0.10;99.90
1994;DHT22;998;49.906;10.908;2024-01-15T12:00:22;0.40;99.90
1994;DHT22;998;49.906;10.908;2024-01-15T12:02:51;0.40;99.90
1994;DHT22;998;49.906;10.908;2024-01-15T12:05:20;0.10;99.90
1994;DHT22;998;49.906;10.908;2024-01-15T12:07:49;0.10;99.90
1994;DHT22;998;49.906;10.908;2024-01-15T12:10:17;0.20;99.90
1994;DHT22;998;49.906;10.908;2024-01-15T12:12:56;0.00;99.90
1994;DHT22;998;49.906;10.908;2024-01-15T12:15:25;0.10;99.90
1994;DHT22;998;49.906;10.908;2024-01-15T12:17:55;0.10;99.90
1994;DHT22;998;49.906;10.908;2024-01-15T12:20:24;0.30;99.90
1994;DHT22;998;49.906;10.908;2024-01-15T12:25:19;0.50;99.90
1994;DHT22;998;49.906;10.908;2024-01-15T12:27:46;0.20;99.90
1994;DHT22;998;49.906;10.908;2024-01-15T12:30:14;0.40;99.90
1994;DHT22;998;49.906;10.908;2024-01-15T12:32:42;0.40;99.90
1994;DHT22;998;49.906;10.908;2024-01-15T12:35:11;0.30;99.90
1994;DHT22;998;49.906;10.908;2024-01-15T12:37:40;0.70;99.90
1994;DHT22;998;49.906;10.908;2024-01-15T12:40:09;0.40;99.90
1994;DHT22;998;49.906;10.908;2024-01-15T12:42:38;0.30;99.90
1994;DHT22;998;49.906;10.908;2024-01-15T12:45:07;0.40;99.90
1994;DHT22;998;49.906;10.908;2024-01-15T12:47:35;0.40;99.90
1994;DHT22;998;49.906;10.908;2024-01-15T12:50:06;0.30;99.90
1994;DHT22;998;49.906;10.908;2024-01-15T12:52:35;0.70;99.90
1994;DHT22;998;49.906;10.908;2024-01-15T12:55:04;0.40;99.90
1994;DHT22;998;49.906;10.908;2024-01-15T12:57:33;0.50;99.90
1994;DHT22;998;49.906;10.908;2024-01-15T13:00:01;0.00;99.90
1994;DHT22;998;49.906;10.908;2024-01-15T13:02:32;0.80;99.90
1994;DHT22;998;49.906;10.908;2024-01-15T13:05:00;0.30;99.90
1994;DHT22;998;49.906;10.908;2024-01-15T13:07:29;0.60;99.90
1994;DHT22;998;49.906;10.908;2024-01-15T13:09:58;0.60;99.90
1994;DHT22;998;49.906;10.908;2024-01-15T13:12:25;0.40;99.90
1994;DHT22;998;49.906;10.908;2024-01-15T13:14:53;0.70;99.90
1994;DHT22;998;49.906;10.908;2024-01-15T13:17:20;0.70;99.90
1994;DHT22;998;49.906;10.908;2024-01-15T13:19:47;0.80;99.90
1994;DHT22;998;49.906;10.908;2024-01-15T13:22:15;0.60;99.90
1994;DHT22;998;49.906;10.908;2024-01-15T13:24:43;0.60;99.90
1994;DHT22;998;49.906;10.908;2024-01-15T13:27:12;0.80;99.90
1994;DHT22;998;49.906;10.908;2024-01-15T13:29:39;0.50;99.90
1994;DHT22;998;49.906;10.908;2024-01-15T13:32:06;0.60;99.90
1994;DHT22;998;49.906;10.908;2024-01-15T13:34:35;-0.10;99.90
1994;DHT22;998;49.906;10.908;2024-01-15T13:37:03;0.70;99.90
1994;DHT22;998;49.906;10.908;2024-01-15T13:39:31;0.60;99.90
1994;DHT22;998;49.906;10.908;2024-01-15T13:41:59;0.50;99.90
1994;DHT22;998;49.906;10.908;2024-01-15T13:44:28;0.50;99.90
1994;DHT22;998;49.906;10.908;2024-01-15T13:46:55;0.90;99.90
1994;DHT22;998;49.906;10.908;2024-01-15T13:49:23;0.60;99.90
1994;DHT22;998;49.906;10.908;2024-01-15T13:51:51;0.60;99.90
1994;DHT22;998;49.906;10.908;2024-01-15T13:54:18;0.70;99.90
1994;DHT22;998;49.906;10.908;2024-01-15T13:56:46;0.80;99.90
1994;DHT22;998;49.906;10.908;2024-01-15T13:59:15;0.80;99.90
1994;DHT22;998;49.906;10.908;2024-01-15T14:01:44;0.90;99.90
1994;DHT22;998;49.906;10.908;2024-01-15T14:04:13;0.70;99.90
1994;DHT22;998;49.906;10.908;2024-01-15T14:06:40;0.60;99.90
1994;DHT22;998;49.906;10.908;2024-01-15T14:09:08;0.70;99.90
1994;DHT22;998;49.906;10.908;2024-01-15T14:11:36;1.70;99.90
1994;DHT22;998;49.906;10.908;2024-01-15T14:14:03;0.70;99.90
1994;DHT22;998;49.906;10.908;2024-01-15T14:16:31;0.70;99.90
1994;DHT22;998;49.906;10.908;2024-01-15T14:19:00;0.50;99.90
1994;DHT22;998;49.906;10.908;2024-01-15T14:21:28;0.50;99.90
1994;DHT22;998;49.906;10.908;2024-01-15T14:23:55;0.70;99.90
1994;DHT22;998;49.906;10.908;2024-01-15T14:26:23;0.70;99.90
1994;DHT22;998;49.906;10.908;2024-01-15T14:28:50;0.90;99.90
1994;DHT22;998;49.906;10.908;2024-01-15T14:31:18;0.60;99.90
1994;DHT22;998;49.906;10.908;2024-01-15T14:33:46;0.90;99.90
1994;DHT22;998;49.906;10.908;2024-01-15T14:36:15;0.70;99.90
1994;DHT22;998;49.906;10.908;2024-01-15T14:38:43;0.80;99.90
1994;DHT22;998;49.906;10.908;2024-01-15T14:41:10;0.80;99.90
1994;DHT22;998;49.906;10.908;2024-01-15T14:43:37;0.80;99.90
1994;DHT22;998;49.906;10.908;2024-01-15T14:46:05;0.70;99.90
1994;DHT22;998;49.906;10.908;2024-01-15T14:48:32;0.50;99.90
1994;DHT22;998;49.906;10.908;2024-01-15T14:50:59;0.80;99.90
1994;DHT22;998;49.906;10.908;2024-01-15T14:53:30;0.60;99.90
1994;DHT22;998;49.906;10.908;2024-01-15T14:55:57;0.70;99.90
1994;DHT22;998;49.906;10.908;2024-01-15T14:58:25;0.70;99.90
1994;DHT22;998;49.906;10.908;2024-01-15T15:00:52;0.30;99.90
1994;DHT22;998;49.906;10.908;2024-01-15T15:03:20;0.40;99.90
1994;DHT22;998;49.906;10.908;2024-01-15T15:05:47;0.50;99.90
1994;DHT22;998;49.906;10.908;2024-01-15T15:08:15;0.60;99.90
1994;DHT22;998;49.906;10.908;2024-01-15T15:10:44;0.30;99.90
1994;DHT22;998;49.906;10.908;2024-01-15T15:13:11;0.60;99.90
1994;DHT22;998;49.906;10.908;2024-01-15T15:15:38;0.40;99.90
1994;DHT22;998;49.906;10.908;2024-01-15T15:18:06;0.70;99.90
1994;DHT22;998;49.906;10.908;2024-01-15T15:20:33;0.50;99.90
1994;DHT22;998;49.906;10.908;2024-01-15T15:23:01;0.60;99.90
1994;DHT22;998;49.906;10.908;2024-01-15T15:25:28;0.50;99.90
1994;DHT22;998;49.906;10.908;2024-01-15T15:27:57;0.90;99.90
1994;DHT22;998;49.906;10.908;2024-01-15T15:30:25;0.00;99.90
1994;DHT22;998;49.906;10.908;2024-01-15T15:32:52;0.60;99.90
1994;DHT22;998;49.906;10.908;2024-01-15T15:35:19;0.60;99.90
1994;DHT22;998;49.906;10.908;2024-01-15T15:37:47;0.80;99.90
1994;DHT22;998;49.906;10.908;2024-01-15T15:40:14;0.30;99.90
1994;DHT22;998;49.906;10.908;2024-01-15T15:42:43;0.80;99.90
1994;DHT22;998;49.906;10.908;2024-01-15T15:45:13;0.70;99.90
1994;DHT22;998;49.906;10.908;2024-01-15T15:47:40;0.50;99.90
1994;DHT22;998;49.906;10.908;2024-01-15T15:50:08;0.60;99.90
1994;DHT22;998;49.906;10.908;2024-01-15T15:52:35;0.40;99.90
1994;DHT22;998;49.906;10.908;2024-01-15T15:55:03;0.70;99.90
1994;DHT22;998;49.906;10.908;2024-01-15T15:57:31;0.80;99.90
1994;DHT22;998;49.906;10.908;2024-01-15T15:59:58;0.70;99.90
1994;DHT22;998;49.906;10.908;2024-01-15T16:02:27;0.80;99.90
1994;DHT22;998;49.906;10.908;2024-01-15T16:04:54;0.50;99.90
1994;DHT22;998;49.906;10.908;2024-01-15T16:07:22;0.00;99.90
1994;DHT22;998;49.906;10.908;2024-01-15T16:09:54;0.60;99.90
1994;DHT22;998;49.906;10.908;2024-01-15T16:12:21;0.60;99.90
1994;DHT22;998;49.906;10.908;2024-01-15T16:14:49;0.50;99.90
1994;DHT22;998;49.906;10.908;2024-01-15T16:17:16;0.60;99.90
1994;DHT22;998;49.906;10.908;2024-01-15T16:19:44;0.60;99.90
1994;DHT22;998;49.906;10.908;2024-01-15T16:22:12;0.70;99.90
1994;DHT22;998;49.906;10.908;2024-01-15T16:24:39;0.90;99.90
1994;DHT22;998;49.906;10.908;2024-01-15T16:27:07;1.30;99.90
1994;DHT22;998;49.906;10.908;2024-01-15T16:29:34;0.80;99.90
1994;DHT22;998;49.906;10.908;2024-01-15T16:32:01;0.50;99.90
1994;DHT22;998;49.906;10.908;2024-01-15T16:34:29;1.00;99.90
1994;DHT22;998;49.906;10.908;2024-01-15T16:36:58;1.00;99.90
1994;DHT22;998;49.906;10.908;2024-01-15T16:39:25;0.80;99.90
1994;DHT22;998;49.906;10.908;2024-01-15T16:41:53;0.70;99.90